Durham, Canada
Current Conditions -  °F | °C
As of 8:00 AM on Saturday 25 Oct 2014 (Local Time) from CYVV Reporting Station
Haze Haze  
Wind Chill: 50°   Ceiling: 900
Heat Index: 50°   Visibility: 4mi
Dew Point: 48°   Wind: 9mph
Humidity: 94%   Direction: 190°S
Pressure: 29.68"   Gusts: NA
Location:  44.18°N, 80.82°W
Report Text: CYVV 251200Z 19008KT 4SM BR BKN009 BKN070 10/09 A2968 RMKSF5AC2 SLP055
Loading
Personal Weather Stations






























Interactive Weather Map
Tropical Storm Tracking
New forecast layout! Learn more

10-Day Weather Forecast

Advertisements
Track Severe Weather on mobile